Observations for NEWCASTLE, United Kingdom (EGNT)

EGNT 180520Z 27016KT 9999 FEW017 13/08 Q1010
EGNT 180450Z 26014KT 9999 FEW017 13/09 Q1010
EGNT 180420Z 25009KT 9999 FEW017 13/10 Q1010
EGNT 180350Z 26009KT 9999 FEW017 13/10 Q1010
EGNT 180320Z 26012KT 9999 SCT015 14/11 Q1010
EGNT 180250Z 25009KT 9999 SCT015 BKN025 14/11 Q1010 
EGNT 180220Z 25011KT 9999 SCT015 BKN030 14/12 Q1010 
EGNT 180150Z 25007KT 210V270 9999 SCT015 BKN030 14/12 Q1010 
EGNT 180120Z 25008KT 9999 SCT015 BKN030 14/12 Q1010 
EGNT 180050Z 25009KT 220V280 9999 SCT015 BKN030 14/12 Q1009 
EGNT 180020Z 24005KT 9999 SCT015 BKN030 15/12 Q1010 
EGNT 172350Z 25008KT 9999 SCT020 BKN030 15/12 Q1010 
EGNT 172320Z 26008KT 9999 BKN020 15/12 Q1010
EGNT 172250Z 25006KT 9999 BKN020 15/12 Q1009
EGNT 172220Z 22005KT 9999 BKN025 15/12 Q1009
EGNT 172150Z 21004KT 170V250 9999 BKN025 15/12 Q1009
EGNT 172120Z 21004KT 170V260 9999 BKN020 15/12 Q1009
EGNT 172050Z 20004KT 160V220 9999 BKN020 15/12 Q1009
EGNT 172020Z 20006KT 160V230 9999 BKN022 15/12 Q1009
EGNT 171950Z 20006KT 150V240 9999 BKN022 15/12 Q1009
EGNT 171920Z 21008KT 9999 6000NW -RA BKN022 15/12 Q1010 
EGNT 171850Z 20006KT 170V230 9999 BKN026 16/11 Q1010
EGNT 171820Z 21006KT 170V240 9999 BKN026 16/10 Q1009
EGNT 171750Z 20005KT 150V230 9999 BKN026 16/11 Q1009
EGNT 171720Z 21006KT 9999 BKN027 16/10 Q1010
EGNT 171620Z 22007KT 190V270 9999 BKN027 16/10 Q1010
EGNT 171550Z 22011KT 180V250 9999 BKN027 16/10 Q1010
EGNT 171450Z 22010KT 170V250 9999 BKN036 16/09 Q1010
EGNT 171420Z 21009KT 170V260 9999 BKN036 17/08 Q1010
EGNT 171350Z 22009KT 180V250 9999 SCT045 16/08 Q1010
EGNT 171250Z 24008KT 200V270 9999 SCT038 17/09 Q1010
EGNT 171220Z 25011KT 210V270 9999 FEW025 BKN048 16/08 Q1010 
EGNT 171150Z 26012KT 9999 FEW030 BKN048 18/08 Q1010 
EGNT 171120Z 26013KT 9999 SCT028 17/08 Q1010
EGNT 171050Z 26012KT 9999 SCT028 16/08 Q1010
EGNT 171020Z 26010KT 9999 BKN028 16/09 Q1010
EGNT 170950Z 25009KT 9999 BKN025 16/08 Q1010
EGNT 170920Z 27007KT 230V300 9999 SCT030 15/09 Q1010
EGNT 170850Z 25008KT 9999 FEW025 SCT040 15/09 Q1010 
EGNT 170820Z 24007KT 210V280 9999 FEW025 SCT048 14/09 Q1010 
EGNT 170750Z 25008KT 210V270 9999 BKN049 14/09 Q1010
EGNT 170720Z 24006KT 9999 BKN049 14/09 Q1010
EGNT 170650Z 25006KT 9999 BKN049 12/08 Q1010
EGNT 170620Z 26006KT 9999 BKN049 12/08 Q1010
EGNT 170550Z 26004KT 220V290 CAVOK 11/08 Q1010  
EGNT 170520Z VRB03KT CAVOK 10/07 Q1010  
EGNT 170450Z VRB03KT CAVOK 09/07 Q1009